Time;durP1;ratioP1;P1;durP2;ratioP2;P2;SDS_P1;SDS_P2;PMS_P1;PMS_P2;Temp;Humidity;BMP_temperature;BMP_pressure;BME280_temperature;BME280_humidity;BME280_pressure;Samples;Min_cycle;Max_cycle;Signal;HPM_P1;HPM_P2
2023/05/14 00:00:37;;;;;;;6.47;2.90;;;;;;;14.26;46.73;95388.97;5044140;28;20021;-73
2023/05/14 00:03:03;;;;;;;4.35;2.80;;;;;;;14.35;46.72;95389.81;5044837;28;20037;-73
2023/05/14 00:05:28;;;;;;;4.00;2.78;;;;;;;14.31;46.75;95383.63;5045089;28;20137;-74
2023/05/14 00:07:53;;;;;;;6.15;2.92;;;;;;;14.40;46.49;95387.72;5047773;28;20025;-74
2023/05/14 00:10:20;;;;;;;5.13;3.75;;;;;;;14.33;46.56;95378.41;5045098;28;20060;-72
2023/05/14 00:12:46;;;;;;;4.15;2.72;;;;;;;14.24;46.95;95385.91;5045403;28;20023;-72
2023/05/14 00:15:11;;;;;;;4.03;2.88;;;;;;;14.26;46.75;95381.44;5046297;28;20017;-72
2023/05/14 00:17:37;;;;;;;4.97;2.97;;;;;;;14.32;46.72;95367.81;5044943;28;20112;-73
2023/05/14 00:20:05;;;;;;;5.38;3.10;;;;;;;14.29;46.59;95383.34;5044736;28;20029;-72
2023/05/14 00:22:31;;;;;;;4.28;2.90;;;;;;;14.27;46.87;95380.22;5045420;28;20041;-72
2023/05/14 00:24:58;;;;;;;5.15;2.92;;;;;;;14.21;46.88;95370.97;5045579;28;20029;-73
2023/05/14 00:27:23;;;;;;;5.07;3.42;;;;;;;14.28;46.86;95359.66;5044966;28;20033;-72
2023/05/14 00:29:49;;;;;;;6.55;3.17;;;;;;;14.30;46.81;95361.97;5045143;28;20018;-73
2023/05/14 00:32:15;;;;;;;4.13;3.10;;;;;;;14.27;46.66;95362.88;5046304;28;20480;-73
2023/05/14 00:34:40;;;;;;;7.40;3.20;;;;;;;14.22;46.64;95366.19;5043134;28;20083;-73
2023/05/14 00:37:05;;;;;;;5.82;3.08;;;;;;;14.15;46.78;95361.72;5046157;28;20468;-73
2023/05/14 00:39:31;;;;;;;4.07;3.15;;;;;;;14.12;47.08;95356.31;5044780;28;20026;-74
2023/05/14 00:41:56;;;;;;;5.72;3.08;;;;;;;14.05;47.22;95351.81;5043985;28;20108;-73
2023/05/14 00:44:22;;;;;;;4.70;2.90;;;;;;;14.08;47.02;95353.69;5045079;28;20036;-73
2023/05/14 00:46:47;;;;;;;5.05;2.75;;;;;;;14.11;47.02;95358.31;5044964;28;20566;-73
2023/05/14 00:49:13;;;;;;;6.07;2.95;;;;;;;14.18;46.91;95358.06;5044429;28;20032;-72
2023/05/14 00:51:40;;;;;;;4.65;2.63;;;;;;;14.07;46.90;95349.38;5043333;28;20029;-72
2023/05/14 00:54:05;;;;;;;3.88;2.47;;;;;;;14.06;46.72;95350.59;5044421;28;20128;-73
2023/05/14 00:56:31;;;;;;;5.03;3.00;;;;;;;13.98;46.99;95349.28;5026692;28;20108;-72
2023/05/14 00:58:56;;;;;;;3.33;2.83;;;;;;;13.93;46.83;95338.81;5045191;28;20021;-72
2023/05/14 01:01:22;;;;;;;7.68;2.63;;;;;;;13.95;47.10;95339.16;5044536;28;20108;-73
2023/05/14 01:03:47;;;;;;;5.82;2.85;;;;;;;13.97;47.39;95348.53;5045470;28;20502;-74
2023/05/14 01:06:23;;;;;;;4.03;3.00;;;;;;;13.95;47.32;95350.97;5045141;28;20031;-72
2023/05/14 01:08:58;;;;;;;4.95;2.88;;;;;;;13.95;47.22;95341.91;5042905;28;20134;-72
2023/05/14 01:11:28;;;;;;;4.50;2.80;;;;;;;13.95;47.23;95339.91;5044091;28;20028;-72
2023/05/14 01:14:12;;;;;;;4.38;2.38;;;;;;;13.99;47.21;95335.03;5042773;28;20079;-72
2023/05/14 01:16:39;;;;;;;3.60;2.60;;;;;;;13.93;47.03;95327.75;5043727;28;20029;-72
2023/05/14 01:19:09;;;;;;;3.05;2.33;;;;;;;13.95;47.02;95344.69;5043299;28;20021;-74
2023/05/14 01:21:39;;;;;;;4.47;2.47;;;;;;;13.85;46.85;95357.66;5043162;28;20549;-74
2023/05/14 01:24:06;;;;;;;5.80;3.15;;;;;;;13.91;46.79;95358.63;5043318;28;20048;-72
2023/05/14 01:26:32;;;;;;;4.30;2.80;;;;;;;13.97;46.52;95367.09;5042405;28;20025;-72
2023/05/14 01:29:21;;;;;;;2.90;2.30;;;;;;;13.98;46.29;95372.19;5043390;28;20029;-73
2023/05/14 01:31:49;;;;;;;5.43;2.28;;;;;;;13.91;46.30;95369.66;5044185;28;20041;-73
2023/05/14 01:34:15;;;;;;;4.13;2.50;;;;;;;14.02;46.06;95372.06;5026330;28;20052;-72
2023/05/14 01:36:41;;;;;;;3.10;2.53;;;;;;;13.90;46.01;95376.41;5043683;28;20540;-74
2023/05/14 01:39:10;;;;;;;3.10;2.30;;;;;;;13.89;46.06;95368.59;5042489;28;20100;-73
2023/05/14 01:41:36;;;;;;;3.33;2.05;;;;;;;13.95;46.06;95375.84;5027775;28;20475;-72
2023/05/14 01:44:02;;;;;;;3.53;2.78;;;;;;;13.82;46.28;95373.13;5042195;28;20035;-72
2023/05/14 01:46:31;;;;;;;3.85;1.95;;;;;;;13.80;46.42;95366.50;5043926;28;20112;-72
2023/05/14 01:48:57;;;;;;;4.00;2.42;;;;;;;13.70;46.57;95357.34;5042594;28;20025;-71
2023/05/14 01:51:22;;;;;;;4.72;2.60;;;;;;;13.66;46.58;95367.00;5042857;28;20087;-73
2023/05/14 01:53:48;;;;;;;3.90;2.35;;;;;;;13.73;46.53;95359.22;5043277;28;20144;-72
2023/05/14 01:56:13;;;;;;;3.45;2.40;;;;;;;13.65;46.89;95374.53;5044573;28;20025;-72
2023/05/14 01:58:38;;;;;;;5.25;2.40;;;;;;;13.68;47.05;95381.91;5044982;28;20067;-73
2023/05/14 02:01:04;;;;;;;4.05;2.47;;;;;;;13.69;47.18;95369.63;5043630;28;20067;-72
2023/05/14 02:03:30;;;;;;;4.45;2.40;;;;;;;13.59;47.39;95368.03;5044759;28;20452;-72
2023/05/14 02:05:55;;;;;;;4.88;2.47;;;;;;;13.62;46.99;95369.09;5043662;28;20040;-72
2023/05/14 02:08:20;;;;;;;3.53;2.13;;;;;;;13.68;46.88;95370.84;5044143;28;20029;-73
2023/05/14 02:10:46;;;;;;;3.60;2.45;;;;;;;13.60;47.08;95368.78;5042737;28;20055;-73
2023/05/14 02:13:11;;;;;;;5.43;2.42;;;;;;;13.57;47.14;95373.19;5043818;28;20031;-73
2023/05/14 02:15:37;;;;;;;3.38;2.20;;;;;;;13.66;46.68;95367.00;5044607;28;20017;-72
2023/05/14 02:18:02;;;;;;;2.88;2.10;;;;;;;13.80;46.80;95374.78;5042107;28;20487;-73
2023/05/14 02:20:28;;;;;;;2.58;1.90;;;;;;;13.76;46.76;95374.13;5043609;28;20109;-73
2023/05/14 02:22:53;;;;;;;4.22;2.25;;;;;;;13.82;46.99;95378.66;5041924;28;20135;-73
2023/05/14 02:25:18;;;;;;;3.60;2.20;;;;;;;13.68;47.34;95379.13;5042695;28;20108;-73
2023/05/14 02:27:44;;;;;;;3.58;2.17;;;;;;;13.69;47.65;95377.91;5043815;28;20021;-74
2023/05/14 02:30:10;;;;;;;3.47;2.90;;;;;;;13.76;47.63;95382.41;5044016;28;20083;-73
2023/05/14 02:32:35;;;;;;;4.28;2.47;;;;;;;13.48;47.88;95393.22;5042746;28;20021;-73
2023/05/14 02:35:01;;;;;;;4.32;2.50;;;;;;;13.55;48.38;95386.69;5043954;28;20025;-73
2023/05/14 02:37:26;;;;;;;4.10;2.40;;;;;;;13.55;48.31;95387.47;5045449;28;20497;-73
2023/05/14 02:39:52;;;;;;;3.42;2.40;;;;;;;13.47;48.64;95396.41;5044774;28;20075;-73
2023/05/14 02:42:17;;;;;;;5.00;2.30;;;;;;;13.24;49.41;95390.03;5048082;28;20032;-72
2023/05/14 02:44:43;;;;;;;4.30;2.75;;;;;;;13.28;49.13;95389.94;5045537;28;20507;-72
2023/05/14 02:47:08;;;;;;;3.90;2.60;;;;;;;13.28;49.32;95403.72;5047684;28;20048;-73
2023/05/14 02:49:33;;;;;;;2.90;2.35;;;;;;;13.24;49.51;95403.84;5047462;28;20466;-73
2023/05/14 02:51:59;;;;;;;3.67;2.45;;;;;;;13.24;49.49;95409.34;5048143;28;20127;-74
2023/05/14 02:54:25;;;;;;;5.25;2.53;;;;;;;13.11;49.72;95407.81;5046798;28;20021;-73
2023/05/14 02:56:51;;;;;;;3.90;2.13;;;;;;;13.07;49.87;95404.38;5047179;28;20025;-73
2023/05/14 02:59:16;;;;;;;4.53;2.42;;;;;;;12.93;50.25;95403.59;5046686;28;20112;-73
2023/05/14 03:01:41;;;;;;;3.28;2.40;;;;;;;12.89;50.29;95402.94;5028583;28;20017;-72
2023/05/14 03:04:07;;;;;;;4.15;2.50;;;;;;;12.85;50.38;95398.75;5047738;28;20068;-73
2023/05/14 03:06:32;;;;;;;3.38;2.05;;;;;;;12.80;50.15;95408.34;5046566;28;20025;-72
2023/05/14 03:08:58;;;;;;;6.22;2.60;;;;;;;12.77;50.31;95412.75;5046077;28;20036;-73
2023/05/14 03:11:23;;;;;;;4.47;2.35;;;;;;;12.74;50.49;95399.06;5045392;28;20025;-72
2023/05/14 03:13:49;;;;;;;3.08;2.13;;;;;;;12.81;50.31;95371.25;5029012;28;20422;-73
2023/05/14 03:16:14;;;;;;;3.50;2.67;;;;;;;12.74;50.14;95368.72;5045876;28;20115;-73
2023/05/14 03:18:40;;;;;;;3.92;2.35;;;;;;;12.75;50.20;95379.31;5028695;28;20553;-72
2023/05/14 03:21:07;;;;;;;4.22;2.60;;;;;;;12.74;50.31;95377.78;5047953;28;20025;-73
2023/05/14 03:23:33;;;;;;;6.53;2.95;;;;;;;12.73;50.40;95387.25;5044451;28;20033;-73
2023/05/14 03:25:59;;;;;;;2.78;2.13;;;;;;;12.70;50.10;95392.88;5045597;28;20033;-72
2023/05/14 03:28:25;;;;;;;2.70;2.10;;;;;;;12.71;50.32;95383.38;5044869;28;20430;-73
2023/05/14 03:30:51;;;;;;;4.65;2.55;;;;;;;12.75;50.39;95400.59;5045558;28;20021;-73
2023/05/14 03:33:16;;;;;;;5.85;2.40;;;;;;;12.80;50.23;95408.34;5045835;28;20384;-74
2023/05/14 03:35:41;;;;;;;3.28;2.33;;;;;;;12.70;50.45;95399.16;5044630;28;20025;-72
2023/05/14 03:38:07;;;;;;;4.53;2.80;;;;;;;12.56;51.46;95401.56;5047351;28;20025;-73
2023/05/14 03:40:32;;;;;;;3.60;2.40;;;;;;;12.49;52.00;95400.56;5044279;28;20465;-72
2023/05/14 03:42:57;;;;;;;3.00;2.55;;;;;;;12.37;52.62;95403.28;5048177;28;20104;-73
2023/05/14 03:45:23;;;;;;;2.67;2.20;;;;;;;12.36;52.61;95377.69;5044718;28;20025;-73
2023/05/14 03:47:48;;;;;;;3.63;2.45;;;;;;;12.45;53.41;95393.63;5048092;28;20089;-74
2023/05/14 03:50:15;;;;;;;3.63;2.70;;;;;;;12.32;53.76;95398.31;5045771;28;20029;-74
2023/05/14 03:52:40;;;;;;;3.97;2.38;;;;;;;12.26;53.90;95392.56;5045858;28;20041;-73
2023/05/14 03:55:06;;;;;;;3.67;2.40;;;;;;;12.42;53.79;95403.53;5047003;28;20432;-73
2023/05/14 03:57:31;;;;;;;3.47;2.20;;;;;;;12.41;53.83;95407.50;5044212;28;20033;-73
2023/05/14 03:59:57;;;;;;;2.92;2.15;;;;;;;12.39;53.45;95401.66;5047360;28;20017;-73
2023/05/14 04:02:23;;;;;;;3.72;2.40;;;;;;;12.32;53.20;95399.06;5045247;28;20075;-73
2023/05/14 04:04:48;;;;;;;2.72;2.38;;;;;;;12.33;52.67;95408.13;5046634;28;20032;-73
2023/05/14 04:07:14;;;;;;;2.90;2.25;;;;;;;12.26;52.91;95403.59;5045629;28;20025;-72
2023/05/14 04:09:39;;;;;;;4.20;2.40;;;;;;;12.35;53.12;95414.00;5045793;28;20033;-71
2023/05/14 04:12:05;;;;;;;3.65;2.30;;;;;;;12.43;53.18;95415.31;5045991;28;20420;-72
2023/05/14 04:14:31;;;;;;;4.10;2.40;;;;;;;12.51;52.60;95418.66;5045309;28;20159;-73
2023/05/14 04:16:56;;;;;;;4.93;2.40;;;;;;;12.37;52.92;95417.84;5046604;28;20088;-73
2023/05/14 04:19:21;;;;;;;4.30;2.47;;;;;;;12.43;52.82;95421.59;5043784;28;20059;-73
2023/05/14 04:21:47;;;;;;;3.88;2.25;;;;;;;12.38;52.92;95416.63;5044813;28;20029;-73
2023/05/14 04:24:12;;;;;;;4.78;2.33;;;;;;;12.47;52.68;95419.53;5043390;28;20118;-73
2023/05/14 04:26:37;;;;;;;4.65;2.58;;;;;;;12.61;52.18;95423.84;5027519;28;20040;-73
2023/05/14 04:29:03;;;;;;;3.05;2.28;;;;;;;12.52;51.86;95420.97;5043962;28;20036;-73
2023/05/14 04:31:29;;;;;;;5.07;2.67;;;;;;;12.51;51.92;95424.19;5045754;28;20116;-73
2023/05/14 04:33:54;;;;;;;4.18;2.10;;;;;;;12.53;52.02;95432.78;5044349;28;20032;-72
2023/05/14 04:36:19;;;;;;;4.95;2.53;;;;;;;12.56;52.12;95437.41;5045062;28;20029;-73
2023/05/14 04:38:45;;;;;;;4.70;2.53;;;;;;;12.59;51.67;95439.31;5027896;28;20112;-73
2023/05/14 04:41:10;;;;;;;4.72;2.35;;;;;;;12.47;51.85;95443.56;5043597;28;20044;-72
2023/05/14 04:43:36;;;;;;;4.53;2.53;;;;;;;12.42;52.29;95439.38;5048781;28;20020;-74
2023/05/14 04:46:01;;;;;;;2.92;2.47;;;;;;;12.37;51.88;95447.41;5045337;28;20024;-73
2023/05/14 04:48:27;;;;;;;4.85;2.22;;;;;;;12.34;52.29;95449.06;5046539;28;20092;-73
2023/05/14 04:50:52;;;;;;;4.15;2.38;;;;;;;12.34;52.54;95462.06;5045192;28;20029;-73
2023/05/14 04:53:18;;;;;;;2.92;2.60;;;;;;;12.36;52.75;95467.91;5027155;28;20206;-73
2023/05/14 04:55:43;;;;;;;4.07;2.28;;;;;;;12.30;53.15;95475.94;5044070;28;20028;-74
2023/05/14 04:58:08;;;;;;;8.25;2.65;;;;;;;12.32;53.62;95478.25;5044576;28;20396;-73
2023/05/14 05:00:34;;;;;;;4.43;2.47;;;;;;;12.44;53.84;95483.03;5045863;28;20025;-72
2023/05/14 05:02:59;;;;;;;3.83;2.80;;;;;;;12.30;54.02;95480.69;5044249;28;20198;-73
2023/05/14 05:05:25;;;;;;;4.80;2.72;;;;;;;12.36;54.35;95495.47;5045209;28;20024;-73
2023/05/14 05:07:50;;;;;;;3.95;2.55;;;;;;;12.33;54.80;95499.91;5042996;28;20021;-72
2023/05/14 05:10:15;;;;;;;3.45;2.50;;;;;;;12.32;55.09;95497.56;5044972;28;20035;-75
2023/05/14 05:12:41;;;;;;;4.40;2.67;;;;;;;12.10;56.13;95489.88;5044663;28;20025;-73
2023/05/14 05:15:08;;;;;;;4.72;2.72;;;;;;;12.30;56.15;95499.97;5044614;28;20376;-74
2023/05/14 05:17:33;;;;;;;4.30;2.63;;;;;;;12.34;56.43;95500.66;5044167;28;20460;-73
2023/05/14 05:19:59;;;;;;;3.67;2.60;;;;;;;12.35;56.44;95502.97;5042690;28;20493;-73
2023/05/14 05:22:24;;;;;;;4.57;2.90;;;;;;;12.28;57.02;95516.19;5043925;28;20037;-73
2023/05/14 05:24:50;;;;;;;4.07;2.65;;;;;;;12.39;57.40;95511.94;5042203;28;20115;-72
2023/05/14 05:27:15;;;;;;;6.35;3.08;;;;;;;12.48;58.20;95525.09;5044674;28;20558;-75
2023/05/14 05:29:41;;;;;;;3.42;3.00;;;;;;;12.43;57.88;95512.59;5044521;28;20115;-72
2023/05/14 05:32:06;;;;;;;4.38;2.88;;;;;;;12.55;58.20;95524.88;5042794;28;20082;-74
2023/05/14 05:34:32;;;;;;;4.13;3.30;;;;;;;12.55;58.57;95519.38;5043629;28;20506;-74
2023/05/14 05:36:58;;;;;;;3.85;2.92;;;;;;;12.23;59.04;95511.97;5042890;28;20025;-74
2023/05/14 05:39:23;;;;;;;4.75;3.22;;;;;;;12.18;60.76;95512.50;5046123;28;20078;-74
2023/05/14 05:41:49;;;;;;;5.35;2.97;;;;;;;12.17;60.90;95519.22;5043509;28;20511;-74
2023/05/14 05:44:15;;;;;;;4.65;3.60;;;;;;;11.89;61.34;95524.22;5044966;28;20549;-74
2023/05/14 05:46:40;;;;;;;4.30;3.28;;;;;;;11.87;62.90;95525.84;5042814;28;20031;-75
2023/05/14 05:49:05;;;;;;;4.30;3.25;;;;;;;11.86;63.18;95525.06;5044461;28;20511;-73
2023/05/14 05:51:32;;;;;;;4.22;3.40;;;;;;;11.93;63.01;95526.91;5043173;28;20032;-74
2023/05/14 05:53:57;;;;;;;5.15;3.88;;;;;;;11.88;63.35;95525.44;5044631;28;20025;-73
2023/05/14 05:56:22;;;;;;;6.13;3.72;;;;;;;11.92;63.46;95522.59;5027121;28;20013;-74
2023/05/14 05:58:48;;;;;;;4.93;3.67;;;;;;;11.67;64.49;95514.91;5042391;28;20025;-72
2023/05/14 06:01:13;;;;;;;4.72;3.72;;;;;;;11.46;64.82;95515.41;5043456;28;20021;-73
2023/05/14 06:03:39;;;;;;;5.68;4.03;;;;;;;11.52;66.13;95508.94;5042132;28;20138;-73
2023/05/14 06:06:05;;;;;;;7.15;4.30;;;;;;;11.43;66.96;95517.81;5026509;28;20087;-72
2023/05/14 06:08:30;;;;;;;6.65;4.25;;;;;;;11.28;67.22;95510.28;5042483;28;20129;-73
2023/05/14 06:10:56;;;;;;;6.22;4.40;;;;;;;11.38;67.20;95523.03;5042602;28;20151;-74
2023/05/14 06:13:21;;;;;;;6.47;4.90;;;;;;;11.29;67.46;95526.38;5026789;28;20119;-73
2023/05/14 06:15:47;;;;;;;5.90;4.35;;;;;;;11.20;67.90;95526.19;5047613;28;20064;-73
2023/05/14 06:18:12;;;;;;;6.32;4.32;;;;;;;11.37;68.06;95519.53;5048388;28;20021;-73
2023/05/14 06:20:38;;;;;;;6.93;4.93;;;;;;;11.27;67.80;95514.25;5047216;28;20025;-74
2023/05/14 06:23:04;;;;;;;7.57;4.93;;;;;;;11.11;68.35;95514.97;5048247;28;20458;-74
2023/05/14 06:25:30;;;;;;;7.60;4.85;;;;;;;11.09;68.37;95509.91;5045889;28;20048;-73
2023/05/14 06:27:55;;;;;;;5.28;4.20;;;;;;;11.05;68.68;95506.47;5047793;28;20025;-73
2023/05/14 06:30:20;;;;;;;8.13;5.03;;;;;;;11.12;68.66;95527.53;5046110;28;20029;-74
2023/05/14 06:32:46;;;;;;;5.88;4.82;;;;;;;11.02;68.67;95534.06;5047982;28;20025;-72
2023/05/14 06:35:11;;;;;;;7.18;4.75;;;;;;;11.02;68.66;95537.59;5048071;28;20050;-75
2023/05/14 06:37:37;;;;;;;7.00;4.28;;;;;;;10.86;69.10;95532.03;5029108;28;20029;-73
2023/05/14 06:40:02;;;;;;;7.13;4.78;;;;;;;10.73;69.29;95533.88;5046998;28;20092;-74
2023/05/14 06:42:28;;;;;;;7.80;5.13;;;;;;;10.81;69.47;95530.53;5047059;28;20526;-73
2023/05/14 06:44:53;;;;;;;6.07;4.72;;;;;;;10.82;69.78;95523.84;5046651;28;20123;-73
2023/05/14 06:47:19;;;;;;;10.15;5.80;;;;;;;10.78;70.25;95525.09;5047078;28;20415;-73
2023/05/14 06:49:44;;;;;;;6.78;5.40;;;;;;;10.80;70.16;95526.25;5047614;28;20398;-73
2023/05/14 06:52:10;;;;;;;12.15;5.90;;;;;;;10.88;70.31;95526.88;5047224;28;20029;-75
2023/05/14 06:54:35;;;;;;;6.75;5.63;;;;;;;10.89;70.42;95515.44;5045946;28;20465;-73
2023/05/14 06:57:00;;;;;;;8.95;5.22;;;;;;;10.83;70.34;95502.59;5048100;28;20369;-73
2023/05/14 06:59:26;;;;;;;9.65;6.28;;;;;;;11.00;70.50;95508.94;5045685;28;20070;-76
2023/05/14 07:01:51;;;;;;;9.25;6.25;;;;;;;11.15;70.47;95513.72;5046562;28;20430;-74
2023/05/14 07:04:17;;;;;;;6.85;6.13;;;;;;;11.24;69.84;95521.41;5044803;28;20533;-74
2023/05/14 07:06:42;;;;;;;9.88;6.40;;;;;;;11.41;69.71;95522.19;5046241;28;20074;-74
2023/05/14 07:09:07;;;;;;;9.15;6.28;;;;;;;11.50;69.25;95524.34;5046622;28;20025;-75
2023/05/14 07:11:33;;;;;;;7.90;5.95;;;;;;;11.69;68.78;95523.50;5045659;28;20302;-74
2023/05/14 07:13:59;;;;;;;9.40;6.40;;;;;;;11.82;68.47;95535.44;5045978;28;20450;-74
2023/05/14 07:16:25;;;;;;;9.23;7.55;;;;;;;11.91;68.38;95545.84;5046350;28;20110;-75
2023/05/14 07:18:50;;;;;;;8.38;6.18;;;;;;;11.94;68.15;95551.28;5029574;28;20044;-74
2023/05/14 07:21:15;;;;;;;6.97;5.75;;;;;;;12.01;67.37;95553.06;5044810;28;20068;-73
2023/05/14 07:23:41;;;;;;;8.88;6.00;;;;;;;12.11;67.26;95543.00;5047210;28;20025;-73
2023/05/14 07:26:07;;;;;;;13.18;6.88;;;;;;;12.19;68.17;95542.38;5043493;28;20024;-73
2023/05/14 07:28:32;;;;;;;9.40;6.03;;;;;;;12.24;67.39;95538.31;5046115;28;20384;-73
2023/05/14 07:30:58;;;;;;;8.38;5.90;;;;;;;12.28;66.92;95536.25;5029482;28;20037;-74
2023/05/14 07:33:24;;;;;;;8.82;7.13;;;;;;;12.32;66.77;95538.91;5044740;28;20029;-73
2023/05/14 07:35:49;;;;;;;9.05;6.60;;;;;;;12.32;66.86;95534.16;5045833;28;20051;-72
2023/05/14 07:38:15;;;;;;;10.80;6.30;;;;;;;12.37;66.94;95539.16;5044478;28;20460;-73
2023/05/14 07:40:41;;;;;;;10.35;6.53;;;;;;;12.43;66.72;95544.91;5045743;28;20098;-74
2023/05/14 07:43:06;;;;;;;8.32;6.40;;;;;;;12.50;66.27;95544.72;5044603;28;20423;-73
2023/05/14 07:45:32;;;;;;;9.55;6.68;;;;;;;12.57;66.26;95543.78;5046345;28;20454;-74
2023/05/14 07:47:57;;;;;;;7.10;5.80;;;;;;;12.60;65.82;95542.91;5028078;28;20041;-73
2023/05/14 07:50:22;;;;;;;8.05;6.22;;;;;;;12.71;65.30;95552.44;5044800;28;20037;-74
2023/05/14 07:52:48;;;;;;;6.93;6.22;;;;;;;12.74;64.70;95559.06;5028438;28;20581;-73
2023/05/14 07:55:13;;;;;;;7.75;5.68;;;;;;;12.61;64.61;95553.47;5044944;28;20104;-74
2023/05/14 07:57:39;;;;;;;8.27;6.65;;;;;;;12.60;65.40;95549.19;5028762;28;20549;-73
2023/05/14 08:00:08;;;;;;;7.38;6.38;;;;;;;12.46;65.65;95555.09;5045291;28;20029;-73
2023/05/14 08:02:34;;;;;;;9.25;6.40;;;;;;;12.46;66.61;95555.09;5046374;28;20020;-73
2023/05/14 08:05:00;;;;;;;8.07;5.88;;;;;;;12.52;66.17;95558.88;5044429;28;20029;-74
2023/05/14 08:07:28;;;;;;;9.13;6.22;;;;;;;12.52;66.24;95564.38;5045978;28;20029;-74
2023/05/14 08:09:53;;;;;;;10.07;6.30;;;;;;;12.54;66.29;95558.44;5028156;28;20032;-74
2023/05/14 08:12:19;;;;;;;6.40;5.50;;;;;;;12.37;66.01;95552.94;5044053;28;20021;-74
2023/05/14 08:14:44;;;;;;;9.02;5.75;;;;;;;11.99;66.97;95549.22;5028264;28;20021;-74
2023/05/14 08:17:10;;;;;;;8.90;6.28;;;;;;;12.15;66.97;95540.91;5043979;28;20029;-75
2023/05/14 08:19:35;;;;;;;9.20;6.10;;;;;;;12.26;66.86;95524.88;5046278;28;20403;-74
2023/05/14 08:22:01;;;;;;;9.65;6.75;;;;;;;12.37;67.16;95532.88;5043735;28;20029;-74
2023/05/14 08:24:26;;;;;;;7.93;5.55;;;;;;;12.38;66.50;95524.16;5047511;28;20546;-73
2023/05/14 08:26:52;;;;;;;8.80;5.80;;;;;;;12.46;66.20;95525.53;5043998;28;20078;-74
2023/05/14 08:29:17;;;;;;;8.52;6.13;;;;;;;12.39;66.47;95516.69;5044081;28;20060;-74
2023/05/14 08:31:43;;;;;;;11.30;5.95;;;;;;;12.43;66.66;95525.63;5045777;28;20029;-74
2023/05/14 08:34:08;;;;;;;6.07;5.15;;;;;;;12.42;66.31;95527.59;5045090;28;20021;-74
2023/05/14 08:36:33;;;;;;;8.48;5.05;;;;;;;12.32;66.06;95522.34;5045718;28;20062;-74
2023/05/14 08:38:59;;;;;;;10.10;5.18;;;;;;;12.35;66.23;95519.53;5043626;28;20013;-74
2023/05/14 08:41:24;;;;;;;5.38;4.60;;;;;;;12.30;66.09;95511.00;5045659;28;20107;-73
2023/05/14 08:44:08;;;;;;;6.65;5.25;;;;;;;12.30;66.56;95517.28;5043613;28;20028;-73
2023/05/14 08:46:35;;;;;;;7.55;5.68;;;;;;;12.38;66.86;95507.59;5045139;28;20028;-75
2023/05/14 08:49:13;;;;;;;7.85;5.40;;;;;;;12.46;66.52;95510.97;5045431;28;20041;-74
2023/05/14 08:51:39;;;;;;;7.90;5.55;;;;;;;12.52;66.49;95509.22;5044539;28;20523;-74
2023/05/14 08:54:05;;;;;;;8.15;5.03;;;;;;;12.46;65.50;95505.47;5044521;28;20055;-73
2023/05/14 08:56:32;;;;;;;6.80;5.32;;;;;;;12.28;64.93;95503.19;5042744;28;20032;-74
2023/05/14 08:58:57;;;;;;;7.35;5.47;;;;;;;12.36;65.68;95510.03;5027485;28;20021;-73
2023/05/14 09:01:23;;;;;;;10.02;6.18;;;;;;;12.34;66.14;95520.72;5026626;28;20044;-74
2023/05/14 09:03:49;;;;;;;9.77;6.18;;;;;;;12.47;65.97;95527.06;5026493;28;20095;-73
2023/05/14 09:06:15;;;;;;;8.63;7.28;;;;;;;12.57;66.20;95510.69;5043390;28;20021;-75
2023/05/14 09:08:40;;;;;;;8.90;6.55;;;;;;;12.66;65.81;95516.31;5043224;28;20024;-76
2023/05/14 09:11:05;;;;;;;6.78;6.03;;;;;;;12.71;65.33;95508.28;5044224;28;20029;-74
2023/05/14 09:13:31;;;;;;;8.60;6.22;;;;;;;12.76;65.10;95502.25;5042847;28;20050;-75
2023/05/14 09:15:56;;;;;;;7.93;6.22;;;;;;;12.78;65.08;95499.03;5044179;28;20032;-76
2023/05/14 09:18:22;;;;;;;7.80;6.75;;;;;;;12.91;64.91;95502.63;5044076;28;20025;-74
2023/05/14 09:20:48;;;;;;;6.68;5.70;;;;;;;12.88;64.94;95502.72;5045973;28;20033;-75
2023/05/14 09:23:13;;;;;;;8.15;6.18;;;;;;;12.81;65.16;95502.91;5045315;28;20522;-74
2023/05/14 09:25:40;;;;;;;6.53;5.70;;;;;;;12.61;65.85;95505.81;5042450;28;20037;-76
2023/05/14 09:28:07;;;;;;;7.43;5.93;;;;;;;12.50;66.34;95500.59;5027306;28;20048;-76
2023/05/14 09:30:33;;;;;;;7.03;5.45;;;;;;;12.33;65.97;95479.78;5044494;28;20029;-75
2023/05/14 09:32:59;;;;;;;7.75;5.93;;;;;;;12.32;66.14;95494.78;5044566;28;20507;-78
2023/05/14 09:35:24;;;;;;;7.60;5.80;;;;;;;12.38;66.14;95496.59;5044411;28;20036;-76
2023/05/14 09:37:52;;;;;;;8.93;6.03;;;;;;;12.01;67.06;95484.19;5043615;28;20029;-75
2023/05/14 09:40:20;;;;;;;8.43;5.75;;;;;;;11.74;67.13;95478.16;5043046;28;20088;-75
2023/05/14 09:42:47;;;;;;;7.60;5.63;;;;;;;11.80;67.11;95466.16;5043153;28;20036;-75
2023/05/14 09:45:12;;;;;;;6.47;5.75;;;;;;;11.67;67.06;95488.13;5043500;28;20037;-75
2023/05/14 09:47:38;;;;;;;7.68;6.32;;;;;;;11.55;67.83;95490.81;5044237;28;20408;-76
2023/05/14 09:50:05;;;;;;;8.60;5.90;;;;;;;11.18;68.45;95490.06;5030740;28;20048;-77
2023/05/14 09:52:30;;;;;;;10.10;7.18;;;;;;;11.38;68.37;95488.03;5047995;28;20475;-77
2023/05/14 09:54:56;;;;;;;9.20;7.05;;;;;;;11.27;69.16;95483.97;5049207;28;20029;-82
2023/05/14 09:57:21;;;;;;;9.18;6.93;;;;;;;11.06;69.50;95471.47;5047098;28;20029;-74
2023/05/14 09:59:53;;;;;;;8.98;6.90;;;;;;;11.08;69.71;95482.84;5047150;28;20583;-75
2023/05/14 10:02:40;;;;;;;8.57;7.07;;;;;;;11.22;69.13;95470.72;5048173;28;20033;-75
2023/05/14 10:05:06;;;;;;;11.02;7.53;;;;;;;11.35;69.04;95457.81;5046447;28;20491;-75
2023/05/14 10:07:39;;;;;;;7.90;6.15;;;;;;;11.15;68.69;95455.16;5047479;28;20032;-78
2023/05/14 10:10:07;;;;;;;7.53;6.40;;;;;;;10.95;69.66;95454.41;5046231;28;20021;-78
2023/05/14 10:12:36;;;;;;;7.50;6.53;;;;;;;11.00;69.81;95451.16;5031059;28;20051;-77
2023/05/14 10:15:03;;;;;;;9.88;6.88;;;;;;;11.08;69.84;95455.31;5052848;28;20025;-77
2023/05/14 10:17:31;;;;;;;9.57;7.53;;;;;;;11.01;69.70;95444.44;5047119;28;20104;-76
2023/05/14 10:19:58;;;;;;;9.18;7.38;;;;;;;11.11;69.89;95418.69;5046878;28;20060;-75
2023/05/14 10:22:26;;;;;;;8.57;7.35;;;;;;;11.23;70.27;95422.72;5029816;28;20110;-78
2023/05/14 10:24:52;;;;;;;7.93;6.60;;;;;;;11.30;69.71;95428.84;5047053;28;20029;-77
2023/05/14 10:27:20;;;;;;;10.18;6.93;;;;;;;11.41;69.49;95445.09;5045937;28;20017;-76
2023/05/14 10:29:53;;;;;;;8.88;6.65;;;;;;;11.49;69.38;95462.25;5048342;28;20033;-77
2023/05/14 10:32:20;;;;;;;9.68;6.80;;;;;;;11.44;68.50;95458.00;5046654;28;20021;-76
2023/05/14 10:34:45;;;;;;;9.60;7.78;;;;;;;11.48;68.92;95447.69;5046555;28;20029;-78
2023/05/14 10:37:13;;;;;;;8.25;7.45;;;;;;;11.61;68.85;95440.28;5048072;28;20058;-78
2023/05/14 10:40:00;;;;;;;7.88;7.07;;;;;;;11.37;68.90;95447.19;5046277;28;20075;-76
2023/05/14 10:42:27;;;;;;;10.20;7.43;;;;;;;11.44;69.02;95447.78;5048329;28;20466;-77
2023/05/14 10:45:00;;;;;;;8.73;7.82;;;;;;;11.59;69.22;95439.97;5046946;28;20110;-77
2023/05/14 10:47:28;;;;;;;9.23;7.78;;;;;;;11.75;69.42;95439.16;5046691;28;20502;-78
2023/05/14 10:49:58;;;;;;;10.50;8.00;;;;;;;11.59;68.92;95434.44;5045930;28;20035;-79
2023/05/14 10:52:24;;;;;;;10.02;7.70;;;;;;;11.61;68.86;95423.75;5045900;28;20060;-79
2023/05/14 10:54:57;;;;;;;9.00;7.18;;;;;;;11.55;68.67;95432.97;5047225;28;20049;-79
2023/05/14 10:57:26;;;;;;;10.85;7.07;;;;;;;11.57;68.48;95433.31;5047407;28;20025;-78
2023/05/14 10:59:53;;;;;;;8.40;6.95;;;;;;;11.42;69.26;95430.94;5046529;28;20127;-78
2023/05/14 11:02:30;;;;;;;8.55;7.50;;;;;;;11.64;69.18;95441.38;5045585;28;20021;-79
2023/05/14 11:05:03;;;;;;;8.98;7.07;;;;;;;11.78;69.27;95434.78;5047185;28;20117;-80
2023/05/14 11:07:40;;;;;;;10.33;7.23;;;;;;;11.90;68.95;95440.38;5047859;28;20029;-78
2023/05/14 11:10:08;;;;;;;7.93;6.97;;;;;;;12.02;68.37;95449.91;5036257;28;20031;-77
2023/05/14 11:12:35;;;;;;;11.32;8.27;;;;;;;12.12;68.42;95454.38;5046418;28;20104;-82
2023/05/14 11:15:02;;;;;;;8.10;7.30;;;;;;;12.18;68.05;95446.34;5044718;28;20025;-79
2023/05/14 11:17:29;;;;;;;10.52;7.40;;;;;;;12.28;67.72;95452.78;5045976;28;20136;-77
2023/05/14 11:19:55;;;;;;;9.98;7.00;;;;;;;12.20;66.69;95446.66;5046777;28;20025;-77
2023/05/14 11:22:22;;;;;;;9.13;7.20;;;;;;;12.20;67.29;95439.19;5045932;28;20534;-78
2023/05/14 11:24:48;;;;;;;8.88;7.65;;;;;;;12.32;67.66;95445.94;5028717;28;20024;-75
2023/05/14 11:27:14;;;;;;;8.23;6.97;;;;;;;12.44;67.55;95441.69;5045021;28;20065;-76